createdAt,value
2018-08-17T00:02:25.234Z,32.67
2018-08-17T00:04:53.876Z,43.30
2018-08-17T00:07:22.506Z,29.37
2018-08-17T00:09:51.088Z,28.03
2018-08-17T00:12:19.725Z,23.67
2018-08-17T00:14:48.324Z,21.53
2018-08-17T00:17:16.928Z,16.87
2018-08-17T00:19:45.576Z,15.03
2018-08-17T00:22:14.257Z,22.33
2018-08-17T00:24:43.024Z,23.17
2018-08-17T00:27:11.646Z,23.17
2018-08-17T00:29:40.237Z,24.50
2018-08-17T00:32:08.876Z,29.90
2018-08-17T00:34:37.474Z,22.90
2018-08-17T00:37:06.108Z,24.77
2018-08-17T00:39:34.699Z,17.03
2018-08-17T00:42:03.584Z,24.63
2018-08-17T00:44:32.289Z,20.23
2018-08-17T00:47:00.875Z,19.10
2018-08-17T00:49:29.464Z,14.50
2018-08-17T00:51:58.076Z,18.23
2018-08-17T00:54:26.707Z,20.50
2018-08-17T00:56:55.312Z,19.53
2018-08-17T00:59:23.904Z,23.80
2018-08-17T01:01:52.520Z,23.00
2018-08-17T01:04:21.568Z,21.37
2018-08-17T01:06:50.228Z,7.80
2018-08-17T01:09:18.859Z,6.53
2018-08-17T01:11:47.488Z,25.70
2018-08-17T01:14:16.135Z,15.03
2018-08-17T01:16:44.784Z,13.80
2018-08-17T01:19:13.430Z,11.43
2018-08-17T01:21:42.024Z,10.30
2018-08-17T01:24:10.642Z,10.77
2018-08-17T01:26:39.256Z,16.93
2018-08-17T01:29:07.893Z,21.10
2018-08-17T01:31:36.548Z,25.07
2018-08-17T01:34:05.147Z,58.73
2018-08-17T01:36:33.742Z,133.77
2018-08-17T01:39:02.349Z,291.30
2018-08-17T01:41:31.125Z,308.03
2018-08-17T01:43:59.780Z,404.63
2018-08-17T01:46:28.377Z,503.53
2018-08-17T01:48:57.008Z,585.47
2018-08-17T01:51:25.621Z,586.20
2018-08-17T01:53:54.248Z,697.70
2018-08-17T01:56:22.887Z,696.73
2018-08-17T01:58:51.488Z,391.47
2018-08-17T02:01:20.178Z,384.70
2018-08-17T02:03:48.808Z,272.07
2018-08-17T02:06:17.452Z,254.60
2018-08-17T02:08:46.432Z,245.93
2018-08-17T02:11:15.025Z,198.33
2018-08-17T02:13:43.627Z,169.17
2018-08-17T02:16:12.318Z,150.93
2018-08-17T02:18:40.920Z,112.33
2018-08-17T02:21:09.677Z,87.90
2018-08-17T02:23:38.284Z,71.17
2018-08-17T02:26:07.020Z,40.17
2018-08-17T02:28:35.621Z,40.13
2018-08-17T02:31:04.271Z,45.43
2018-08-17T02:33:33.254Z,34.67
2018-08-17T02:36:02.246Z,27.93
2018-08-17T02:38:31.193Z,51.57
2018-08-17T02:41:00.143Z,129.07
2018-08-17T02:43:28.746Z,335.23
2018-08-17T02:45:57.384Z,357.63
2018-08-17T02:48:25.985Z,349.37
2018-08-17T02:50:54.604Z,423.27
2018-08-17T02:53:23.253Z,380.00
2018-08-17T02:55:52.218Z,375.87
2018-08-17T02:58:20.885Z,391.53
2018-08-17T03:00:49.546Z,383.40
2018-08-17T03:03:18.151Z,362.13
2018-08-17T03:05:46.804Z,286.63
2018-08-17T03:08:15.469Z,234.13
2018-08-17T03:10:44.141Z,190.73
2018-08-17T03:13:12.764Z,122.03
2018-08-17T03:15:41.356Z,78.50
2018-08-17T03:18:10.092Z,67.07
2018-08-17T03:20:38.687Z,42.47
2018-08-17T03:23:07.324Z,36.67
2018-08-17T03:25:35.913Z,29.00
2018-08-17T03:28:04.512Z,17.80
2018-08-17T03:30:33.332Z,13.20
2018-08-17T03:33:02.922Z,9.83
2018-08-17T03:35:31.592Z,8.77
2018-08-17T03:38:00.216Z,7.53
2018-08-17T03:40:28.816Z,7.47
2018-08-17T03:42:57.393Z,7.70
2018-08-17T03:45:25.978Z,7.17
2018-08-17T03:47:54.622Z,7.10
2018-08-17T03:50:23.239Z,7.47
2018-08-17T03:52:51.836Z,7.90
2018-08-17T03:55:20.546Z,7.20
2018-08-17T03:57:49.174Z,7.87
2018-08-17T04:00:17.853Z,7.70
2018-08-17T04:02:46.479Z,7.70
2018-08-17T04:05:15.430Z,7.70
2018-08-17T04:07:44.034Z,8.13
2018-08-17T04:10:12.721Z,7.60
2018-08-17T04:12:41.355Z,7.87
2018-08-17T04:15:10.504Z,7.60
2018-08-17T04:17:39.491Z,7.40
2018-08-17T04:20:08.796Z,8.50
2018-08-17T04:22:37.386Z,7.70
2018-08-17T04:25:06.020Z,8.17
2018-08-17T04:27:34.596Z,7.90
2018-08-17T04:30:03.241Z,8.60
2018-08-17T04:32:31.941Z,7.87
2018-08-17T04:35:00.555Z,8.23
2018-08-17T04:37:29.184Z,7.73
2018-08-17T04:39:57.788Z,8.17
2018-08-17T04:42:26.388Z,8.13
2018-08-17T04:44:54.992Z,7.93
2018-08-17T04:47:23.640Z,8.33
2018-08-17T04:49:52.281Z,8.40
2018-08-17T04:52:21.038Z,7.80
2018-08-17T04:54:49.836Z,8.57
2018-08-17T04:57:18.452Z,8.77
2018-08-17T04:59:47.085Z,9.07
2018-08-17T05:02:15.724Z,7.73
2018-08-17T05:04:44.341Z,8.07
2018-08-17T05:07:12.969Z,9.40
2018-08-17T05:09:41.549Z,9.67
2018-08-17T05:12:10.165Z,8.20
2018-08-17T05:14:39.019Z,8.00
2018-08-17T05:17:07.630Z,8.17
2018-08-17T05:19:36.268Z,7.63
2018-08-17T05:22:04.880Z,6.63
2018-08-17T05:24:33.763Z,7.40
2018-08-17T05:27:09.012Z,6.60
2018-08-17T05:29:37.609Z,7.17
2018-08-17T05:32:06.855Z,6.95
2018-08-17T05:34:36.137Z,7.70
2018-08-17T05:37:05.784Z,8.03
2018-08-17T05:39:35.012Z,7.10
2018-08-17T05:42:04.224Z,6.65
2018-08-17T05:44:33.512Z,6.83
2018-08-17T05:47:02.714Z,7.03
2018-08-17T05:49:31.977Z,6.80
2018-08-17T05:52:01.237Z,6.67
2018-08-17T05:54:30.468Z,6.70
2018-08-17T05:56:59.697Z,6.80
2018-08-17T05:59:28.873Z,6.90
2018-08-17T06:01:58.064Z,6.30
2018-08-17T06:04:27.277Z,7.58
2018-08-17T06:06:56.471Z,5.72
2018-08-17T06:09:25.624Z,6.05
2018-08-17T06:11:54.803Z,6.65
2018-08-17T06:14:23.965Z,6.30
2018-08-17T06:16:53.165Z,5.70
2018-08-17T06:19:22.732Z,6.20
2018-08-17T06:21:52.089Z,6.30
2018-08-17T06:24:21.253Z,5.95
2018-08-17T06:26:50.453Z,5.83
2018-08-17T06:29:19.733Z,6.37
2018-08-17T06:31:49.323Z,6.37
2018-08-17T06:34:18.718Z,6.20
2018-08-17T06:36:47.912Z,6.22
2018-08-17T06:39:17.093Z,6.10
2018-08-17T06:41:46.304Z,6.20
2018-08-17T06:44:15.687Z,6.37
2018-08-17T06:46:44.873Z,5.37
2018-08-17T06:49:14.049Z,6.12
2018-08-17T06:51:43.222Z,5.85
2018-08-17T06:54:12.421Z,5.60
2018-08-17T06:56:41.690Z,5.45
2018-08-17T06:59:10.887Z,5.97
2018-08-17T07:01:40.089Z,5.12
2018-08-17T07:04:09.286Z,5.10
2018-08-17T07:06:38.493Z,5.28
2018-08-17T07:09:09.026Z,5.10
2018-08-17T07:11:38.108Z,4.43
2018-08-17T07:14:07.545Z,4.70
2018-08-17T07:16:36.468Z,4.60
2018-08-17T07:19:05.568Z,4.80
2018-08-17T07:21:34.891Z,4.97
2018-08-17T07:24:04.043Z,4.30
2018-08-17T07:26:33.406Z,4.33
2018-08-17T07:29:02.293Z,4.37
2018-08-17T07:31:31.854Z,4.23
2018-08-17T07:34:00.888Z,4.37
2018-08-17T07:36:29.868Z,4.40
2018-08-17T07:38:58.749Z,4.10
2018-08-17T07:41:27.634Z,4.60
2018-08-17T07:43:56.613Z,3.60
2018-08-17T07:46:25.808Z,3.98
2018-08-17T07:48:54.994Z,3.50
2018-08-17T07:51:23.872Z,3.80
2018-08-17T07:53:52.745Z,3.73
2018-08-17T07:56:21.686Z,3.37
2018-08-17T07:58:50.978Z,3.83
2018-08-17T08:01:20.211Z,3.10
2018-08-17T08:03:49.749Z,3.30
2018-08-17T08:06:18.667Z,3.40
2018-08-17T08:08:47.646Z,3.30
2018-08-17T08:11:16.576Z,3.10
2018-08-17T08:13:45.564Z,3.10
2018-08-17T08:16:14.657Z,2.80
2018-08-17T08:18:43.594Z,2.80
2018-08-17T08:21:12.516Z,2.30
2018-08-17T08:23:41.413Z,2.70
2018-08-17T08:26:10.758Z,2.67
2018-08-17T08:28:39.839Z,2.60
2018-08-17T08:31:09.051Z,2.57
2018-08-17T08:33:37.994Z,2.70
2018-08-17T08:36:06.965Z,3.20
2018-08-17T08:38:36.213Z,2.03
2018-08-17T08:41:05.297Z,2.93
2018-08-17T08:43:34.231Z,2.67
2018-08-17T08:46:03.593Z,2.63
2018-08-17T08:48:32.858Z,2.70
2018-08-17T08:51:02.052Z,2.85
2018-08-17T08:53:31.045Z,2.40
2018-08-17T08:55:59.996Z,3.07
2018-08-17T08:58:29.098Z,2.63
2018-08-17T09:00:58.316Z,2.37
2018-08-17T09:03:27.253Z,2.00
2018-08-17T09:05:56.455Z,2.40
2018-08-17T09:08:25.669Z,2.50
2018-08-17T09:10:54.898Z,2.60
2018-08-17T09:13:24.097Z,2.20
2018-08-17T09:15:53.296Z,2.55
2018-08-17T09:18:22.518Z,2.65
2018-08-17T09:20:51.785Z,2.62
2018-08-17T09:23:21.236Z,2.98
2018-08-17T09:25:50.457Z,2.70
2018-08-17T09:28:19.677Z,2.50
2018-08-17T09:30:48.861Z,2.20
2018-08-17T09:33:18.264Z,2.77
2018-08-17T09:35:47.662Z,2.77
2018-08-17T09:38:16.864Z,2.52
2018-08-17T09:40:46.068Z,2.90
2018-08-17T09:43:15.250Z,3.15
2018-08-17T09:45:44.436Z,2.40
2018-08-17T09:48:13.670Z,2.52
2018-08-17T09:50:42.855Z,2.87
2018-08-17T09:53:12.054Z,2.77
2018-08-17T09:55:41.361Z,2.45
2018-08-17T09:58:10.576Z,2.60
2018-08-17T10:00:44.858Z,2.70
2018-08-17T10:03:19.177Z,2.47
2018-08-17T10:05:48.455Z,2.50
2018-08-17T10:08:22.761Z,2.72
2018-08-17T10:10:51.984Z,2.65
2018-08-17T10:13:21.206Z,2.58
2018-08-17T10:15:50.441Z,2.50
2018-08-17T10:18:19.811Z,2.35
2018-08-17T10:20:49.010Z,2.67
2018-08-17T10:23:23.613Z,2.60
2018-08-17T10:25:59.244Z,2.42
2018-08-17T10:28:28.437Z,2.50
2018-08-17T10:30:57.622Z,3.15
2018-08-17T10:33:26.799Z,2.60
2018-08-17T10:35:56.093Z,2.60
2018-08-17T10:38:26.836Z,2.60
2018-08-17T10:40:56.073Z,2.55
2018-08-17T10:43:25.446Z,2.55
2018-08-17T10:45:54.630Z,2.45
2018-08-17T10:48:23.809Z,2.52
2018-08-17T10:50:55.818Z,2.47
2018-08-17T10:53:31.136Z,2.25
2018-08-17T10:56:00.367Z,2.25
2018-08-17T10:58:32.949Z,2.10
2018-08-17T11:01:02.100Z,1.82
2018-08-17T11:03:31.418Z,2.00
2018-08-17T11:06:00.592Z,2.10
2018-08-17T11:08:29.778Z,2.00
2018-08-17T11:10:59.078Z,2.00
2018-08-17T11:13:28.557Z,2.00
2018-08-17T11:15:58.277Z,2.20
2018-08-17T11:18:27.496Z,2.20
2018-08-17T11:20:57.016Z,2.10
2018-08-17T11:23:26.232Z,2.25
2018-08-17T11:25:55.405Z,2.50
2018-08-17T11:28:24.584Z,2.22
2018-08-17T11:30:53.767Z,2.45
2018-08-17T11:33:27.556Z,2.30
2018-08-17T11:35:57.230Z,2.08
2018-08-17T11:38:26.955Z,2.20
2018-08-17T11:40:56.148Z,2.33
2018-08-17T11:43:25.329Z,2.30
2018-08-17T11:45:54.534Z,2.33
2018-08-17T11:48:35.536Z,2.42
2018-08-17T11:51:04.996Z,2.05
2018-08-17T11:53:34.591Z,2.40
2018-08-17T11:56:04.055Z,2.08
2018-08-17T11:58:33.413Z,2.35
2018-08-17T12:01:06.898Z,2.52
2018-08-17T12:03:36.522Z,2.50
2018-08-17T12:06:05.787Z,2.60
2018-08-17T12:08:35.041Z,2.30
2018-08-17T12:11:06.553Z,2.30
2018-08-17T12:13:38.489Z,2.80
2018-08-17T12:16:10.908Z,2.45
2018-08-17T12:18:40.192Z,2.40
2018-08-17T12:21:09.647Z,2.50
2018-08-17T12:23:38.906Z,2.67
2018-08-17T12:28:59.222Z,2.50
2018-08-17T12:32:11.244Z,2.40
2018-08-17T12:40:37.829Z,2.42
2018-08-17T12:43:07.202Z,2.80
2018-08-17T12:45:37.672Z,2.70
2018-08-17T12:48:06.979Z,2.92
2018-08-17T12:50:36.296Z,2.90
2018-08-17T12:53:05.590Z,2.83
2018-08-17T12:55:34.894Z,2.77
2018-08-17T13:15:15.039Z,2.98
2018-08-17T13:17:46.301Z,2.75
2018-08-17T13:20:15.584Z,2.77
2018-08-17T13:22:44.745Z,2.65
2018-08-17T13:25:13.937Z,3.00
2018-08-17T13:27:43.204Z,4.47
2018-08-17T13:30:14.316Z,2.72
2018-08-17T13:32:44.230Z,2.80
2018-08-17T13:35:14.059Z,2.98
2018-08-17T13:37:44.135Z,2.87
2018-08-17T13:40:13.374Z,2.70
2018-08-17T13:42:42.609Z,2.55
2018-08-17T13:45:12.290Z,2.80
2018-08-17T13:47:41.616Z,2.60
2018-08-17T13:50:10.824Z,2.47
2018-08-17T13:52:40.033Z,2.70
2018-08-17T13:55:09.255Z,2.75
2018-08-17T13:57:38.478Z,2.20
2018-08-17T14:00:09.420Z,2.60
2018-08-17T14:02:38.633Z,2.80
2018-08-17T14:05:08.876Z,2.65
2018-08-17T14:07:38.189Z,2.95
2018-08-17T14:10:08.806Z,3.10
2018-08-17T14:12:38.763Z,2.80
2018-08-17T14:15:09.019Z,2.60
2018-08-17T14:17:38.597Z,2.92
2018-08-17T14:20:43.956Z,3.15
2018-08-17T14:23:13.242Z,2.60
2018-08-17T14:25:42.451Z,2.70
2018-08-17T14:28:11.647Z,2.65
2018-08-17T14:30:40.907Z,2.45
2018-08-17T14:33:10.186Z,2.40
2018-08-17T14:35:39.464Z,2.60
2018-08-17T14:38:08.661Z,2.50
2018-08-17T14:40:37.859Z,2.58
2018-08-17T14:43:07.137Z,2.45
2018-08-17T14:45:36.680Z,2.30
2018-08-17T14:48:06.376Z,2.27
2018-08-17T14:50:35.792Z,2.75
2018-08-17T14:53:04.953Z,2.55
2018-08-17T14:55:34.343Z,2.40
2018-08-17T14:58:03.600Z,2.30
2018-08-17T15:00:32.876Z,2.52
2018-08-17T15:03:02.112Z,2.45
2018-08-17T15:05:31.469Z,2.55
2018-08-17T15:08:00.707Z,2.35
2018-08-17T15:10:29.959Z,2.52
2018-08-17T15:12:59.188Z,2.45
2018-08-17T15:15:28.619Z,2.30
2018-08-17T15:17:57.797Z,2.60
2018-08-17T15:20:27.026Z,2.50
2018-08-17T15:22:56.223Z,2.20
2018-08-17T15:25:25.570Z,2.22
2018-08-17T15:27:54.795Z,2.42
2018-08-17T15:30:24.017Z,2.42
2018-08-17T15:32:53.238Z,2.30
2018-08-17T15:35:22.797Z,2.40
2018-08-17T15:37:52.008Z,2.25
2018-08-17T15:40:21.193Z,2.10
2018-08-17T15:42:50.458Z,2.50
2018-08-17T15:45:20.821Z,2.25
2018-08-17T15:47:50.099Z,2.33
2018-08-17T15:50:20.650Z,2.60
2018-08-17T15:52:49.872Z,2.60
2018-08-17T15:55:19.113Z,2.37
2018-08-17T15:57:48.424Z,2.40
2018-08-17T16:00:19.711Z,2.55
2018-08-17T16:02:49.152Z,2.25
2018-08-17T16:05:18.401Z,2.50
2018-08-17T16:07:47.617Z,2.27
2018-08-17T16:10:17.095Z,2.50
2018-08-17T16:12:46.957Z,2.27
2018-08-17T16:15:17.200Z,2.45
2018-08-17T16:17:46.424Z,2.65
2018-08-17T16:20:15.660Z,2.30
2018-08-17T16:22:45.009Z,2.47
2018-08-17T16:25:14.326Z,2.50
2018-08-17T16:27:43.795Z,2.58
2018-08-17T16:30:14.745Z,2.30
2018-08-17T16:32:43.997Z,2.37
2018-08-17T16:35:13.872Z,2.40
2018-08-17T16:37:45.463Z,2.60
2018-08-17T16:40:15.044Z,2.47
2018-08-17T16:42:44.207Z,2.70
2018-08-17T16:45:13.390Z,3.00
2018-08-17T16:47:42.603Z,2.60
2018-08-17T16:50:11.808Z,2.40
2018-08-17T16:52:41.064Z,2.27
2018-08-17T16:55:10.364Z,2.42
2018-08-17T16:57:39.748Z,2.60
2018-08-17T17:00:10.533Z,2.20
2018-08-17T17:02:40.242Z,2.80
2018-08-17T17:05:09.508Z,2.62
2018-08-17T17:07:38.802Z,2.70
2018-08-17T17:10:09.572Z,2.50
2018-08-17T17:12:38.767Z,2.50
2018-08-17T17:15:20.057Z,2.40
2018-08-17T17:17:55.064Z,2.25
2018-08-17T17:20:24.369Z,2.30
2018-08-17T17:22:53.519Z,2.45
2018-08-17T17:25:22.732Z,2.35
2018-08-17T17:27:51.978Z,2.70
2018-08-17T17:30:21.317Z,2.62
2018-08-17T17:32:50.541Z,3.00
2018-08-17T17:35:21.415Z,2.70
2018-08-17T17:37:50.608Z,2.60
2018-08-17T17:40:19.831Z,2.25
2018-08-17T17:42:48.988Z,2.75
2018-08-17T17:45:18.293Z,2.52
2018-08-17T17:47:47.459Z,2.50
2018-08-17T17:50:17.007Z,2.55
2018-08-17T17:52:46.180Z,2.70
2018-08-17T17:55:15.337Z,2.42
2018-08-17T17:57:46.858Z,2.60
2018-08-17T18:00:16.131Z,6.28
2018-08-17T18:02:47.510Z,6.33
2018-08-17T18:05:18.099Z,7.05
2018-08-17T18:07:48.258Z,6.25
2018-08-17T18:10:19.535Z,5.10
2018-08-17T18:12:49.120Z,5.53
2018-08-17T18:15:18.288Z,8.88
2018-08-17T18:17:47.468Z,8.13
2018-08-17T18:20:16.734Z,8.10
2018-08-17T18:22:46.010Z,9.73
2018-08-17T18:25:18.405Z,10.58
2018-08-17T18:27:49.068Z,10.68
2018-08-17T18:30:18.401Z,13.28
2018-08-17T18:32:47.664Z,22.65
2018-08-17T18:35:16.980Z,34.95
2018-08-17T18:37:46.283Z,47.67
2018-08-17T18:40:15.530Z,50.28
2018-08-17T18:42:44.770Z,41.85
2018-08-17T18:45:14.031Z,41.48
2018-08-17T18:47:43.273Z,17.92
2018-08-17T18:50:12.446Z,19.02
2018-08-17T18:52:42.142Z,19.92
2018-08-17T18:55:12.245Z,16.05
2018-08-17T18:57:41.815Z,12.70
2018-08-17T19:00:12.857Z,9.63
2018-08-17T19:02:42.252Z,9.70
2018-08-17T19:05:11.743Z,7.75
2018-08-17T19:07:40.966Z,8.35
2018-08-17T19:10:10.872Z,7.00
2018-08-17T19:12:40.184Z,6.00
2018-08-17T19:15:12.559Z,6.58
2018-08-17T19:17:42.142Z,6.40
2018-08-17T19:20:12.762Z,6.45
2018-08-17T19:22:44.589Z,7.55
2018-08-17T19:25:15.254Z,8.50
2018-08-17T19:27:44.923Z,9.48
2018-08-17T19:30:46.260Z,9.30
2018-08-17T19:33:15.498Z,9.28
2018-08-17T19:35:45.580Z,7.65
2018-08-17T19:38:14.834Z,7.47
2018-08-17T19:40:44.038Z,7.47
2018-08-17T19:43:13.397Z,6.03
2018-08-17T19:45:43.633Z,6.28
2018-08-17T19:48:12.954Z,6.20
2018-08-17T19:50:42.401Z,6.47
2018-08-17T19:53:11.583Z,6.30
2018-08-17T19:55:40.917Z,6.70
2018-08-17T19:58:10.162Z,6.30
2018-08-17T20:00:39.511Z,5.95
2018-08-17T20:03:08.865Z,8.68
2018-08-17T20:05:37.469Z,9.27
2018-08-17T20:08:06.025Z,9.83
2018-08-17T20:10:34.957Z,8.73
2018-08-17T20:13:03.704Z,8.53
2018-08-17T20:15:32.409Z,9.03
2018-08-17T20:18:01.703Z,8.68
2018-08-17T20:20:30.899Z,8.68
2018-08-17T20:23:02.860Z,9.50
2018-08-17T20:25:31.606Z,7.80
2018-08-17T20:28:00.291Z,8.23
2018-08-17T20:30:28.932Z,8.70
2018-08-17T20:32:58.332Z,8.40
2018-08-17T20:35:26.993Z,7.93
2018-08-17T20:37:55.680Z,7.23
2018-08-17T20:40:24.337Z,6.80
2018-08-17T20:42:53.560Z,8.15
2018-08-17T20:45:27.225Z,8.45
2018-08-17T20:47:56.488Z,8.20
2018-08-17T20:50:26.064Z,7.70
2018-08-17T20:53:00.054Z,8.28
2018-08-17T20:55:29.416Z,7.47
2018-08-17T20:58:05.458Z,7.92
2018-08-17T21:00:35.063Z,7.70
2018-08-17T21:03:04.468Z,7.58
2018-08-17T21:05:34.210Z,7.95
2018-08-17T21:08:02.857Z,7.80
2018-08-17T21:10:31.527Z,7.90
2018-08-17T21:13:00.280Z,8.40
2018-08-17T21:15:29.228Z,7.97
2018-08-17T21:17:57.896Z,8.10
2018-08-17T21:20:26.596Z,9.20
2018-08-17T21:22:55.288Z,9.10
2018-08-17T21:25:23.919Z,9.57
2018-08-17T21:27:52.560Z,10.07
2018-08-17T21:30:21.357Z,9.43
2018-08-17T21:32:49.992Z,9.30
2018-08-17T21:35:18.722Z,8.80
2018-08-17T21:37:47.588Z,9.03
2018-08-17T21:40:28.894Z,8.87
2018-08-17T21:42:59.166Z,9.00
2018-08-17T21:45:28.021Z,9.27
2018-08-17T21:47:56.661Z,9.43
2018-08-17T21:50:25.369Z,8.97
2018-08-17T21:52:54.065Z,8.93
2018-08-17T21:55:22.877Z,9.10
2018-08-17T21:57:51.641Z,9.60
2018-08-17T22:00:29.655Z,9.60
2018-08-17T22:02:59.500Z,9.63
2018-08-17T22:05:31.226Z,9.97
2018-08-17T22:08:00.475Z,10.60
2018-08-17T22:10:29.537Z,10.20
2018-08-17T22:12:58.442Z,10.10
2018-08-17T22:15:29.097Z,9.90
2018-08-17T22:17:58.179Z,11.03
2018-08-17T22:20:26.862Z,11.07
2018-08-17T22:22:55.501Z,11.23
2018-08-17T22:25:24.276Z,11.33
2018-08-17T22:27:53.108Z,13.10
2018-08-17T22:30:26.321Z,11.93
2018-08-17T22:32:55.009Z,12.70
2018-08-17T22:35:23.714Z,12.23
2018-08-17T22:37:52.545Z,12.97
2018-08-17T22:40:21.243Z,13.13
2018-08-17T22:42:50.865Z,12.10
2018-08-17T22:45:19.569Z,12.00
2018-08-17T22:47:48.245Z,12.43
2018-08-17T22:50:16.892Z,12.60
2018-08-17T22:52:45.546Z,12.53
2018-08-17T22:55:14.866Z,12.70
2018-08-17T22:57:43.474Z,12.67
2018-08-17T23:00:29.961Z,12.87
2018-08-17T23:03:02.645Z,12.77
2018-08-17T23:05:34.421Z,12.77
2018-08-17T23:08:03.089Z,12.13
2018-08-17T23:10:31.736Z,12.07
2018-08-17T23:13:00.631Z,11.53
2018-08-17T23:15:29.529Z,11.43
2018-08-17T23:18:00.151Z,11.40
2018-08-17T23:20:36.078Z,12.33
2018-08-17T23:23:06.247Z,12.00
2018-08-17T23:25:35.609Z,11.77
2018-08-17T23:28:04.297Z,12.50
2018-08-17T23:30:33.194Z,12.67
2018-08-17T23:33:01.957Z,13.40
2018-08-17T23:35:30.998Z,12.50
2018-08-17T23:37:59.667Z,12.30
2018-08-17T23:40:28.439Z,12.63
2018-08-17T23:42:57.116Z,12.60
2018-08-17T23:45:25.721Z,13.33
2018-08-17T23:47:54.481Z,13.47
2018-08-17T23:50:23.101Z,13.00
2018-08-17T23:52:51.735Z,12.63
2018-08-17T23:55:20.437Z,13.50
2018-08-17T23:57:49.101Z,13.70
